イヌヴィック空港の過去48時間の天気

イヌヴィック空港 (Inuvik)

現在時刻: 9/28 02:44 MDT (9/28 08:44 UTC) 以下の時間は現地時間です。

過去48時間のMETAR気象情報
時間 風向 風速(m/s) 視程 気温(℃) 湿度(%) 気圧(hPa) 天気現象
28 02:00 5 10km以上 2 93 1000.1 もや
28 01:00 北北東 5 8050m 2 100 1000.3 もや
28 00:37 北北東 5 6450m 2 100 1000.5 もや
28 00:07 北北東 4 4000m 2 100 1000.8 もや
27 23:25 4 1600m 2 93 1001.1 もや
27 23:15 4 2400m 2 93 1001.1 もや
27 23:00 4 4850m 2 93 1001.3 もや
27 22:00 2 10km以上 2 93 1001.8
27 21:00 3 10km以上 2 87 1001.9
27 20:30 北東 2 10km以上 2 87 1002.6
27 20:00 北東 2 10km以上 2 87 1002.8
27 19:50 東北東 3 10km以上 2 87 1003.1
27 19:00 北東 3 10km以上 2 87 1004
27 18:00 3 10km以上 2 87 1005.1
27 17:00 不定 2 10km以上 2 87 1006.2
27 16:00 不定 1 10km以上 2 93 1007
27 15:00 不定 1 10km以上 2 87 1008
27 14:18 静穏 0 10km以上 2 93 1008.6
27 14:00 静穏 0 10km以上 1 93 1009
27 13:00 南西 2 10km以上 1 93 1009.7
27 12:00 南西 3 10km以上 1 93 1010
27 11:00 不定 1 10km以上 1 100 1010.3 周辺で霧
27 10:00 西北西 1 10km以上 0 100 1010.5 周辺で霧
27 09:00 西 2 10km以上 0 100 1010.8 周辺で霧
27 08:00 西 3 10km以上 0 100 1011.1
27 07:38 西 2 10km以上 0 100 1011.1 周辺で霧
27 07:25 西 2 2400m 0 100 1011.1 もや
27 07:00 西 2 6450m 0 100 1011.1 もや
27 06:00 西 3 10km以上 0 100 1011.1
27 05:20 西 3 10km以上 0 100 1011.2
27 05:00 西 2 10km以上 0 100 1011.2 弱い雪
27 04:00 西 3 10km以上 0 100 1011.1 弱い雪
27 03:16 西 3 10km以上 0 100 1011.1 弱い雪
27 03:00 西 2 10km以上 0 100 1011 弱い霧雨
27 02:00 西 3 6450m 0 100 1010.6 弱い霧雨 もや
27 01:36 西 3 6450m 0 100 1010.5 弱い霧雨 もや
27 01:00 西北西 3 6450m 0 100 1010.3 弱い雪 もや
27 00:00 西 3 6450m 0 100 1010.1 弱い雪 もや
26 23:00 西 3 10km以上 0 100 1009.8 弱い雪
26 22:45 西 3 10km以上 1 93 1009.7 弱い雪
26 22:00 西北西 4 10km以上 1 100 1009.6 弱い雪
26 21:00 西北西 3 8050m 1 93 1009.3 弱い雪
26 20:00 西 3 6450m 1 100 1009 弱い雪
26 19:47 西北西 3 8050m 1 100 1008.9 弱い雪
26 19:00 西北西 4 8050m 1 100 1008.6 弱い雪
26 18:32 西北西 4 10km以上 1 100 1008.4 弱い雪
26 18:00 西北西 5 10km以上 1 100 1008.2 弱い雨 弱い雪
26 17:00 西北西 4 10km以上 2 93 1007.9 弱い雨 弱い雪
26 16:00 西北西 6 10km以上 2 100 1007.5 弱い雨 弱い雪
26 15:06 西北西 5 10km以上 2 100 1007.1 弱い雨 弱い雪
26 14:38 西北西 5 10km以上 2 100 1006.8 弱い雨
26 14:25 西北西 4 8050m 2 100 1006.7 弱い雨 もや
26 14:00 西北西 5 3200m 2 100 1006.4 弱い雨 弱い雪 もや
26 13:50 西北西 4 2400m 1 100 1006.3 弱い雨 弱い雪 もや
26 13:47 西北西 3 2400m 2 100 1006.3 弱い雨 もや
26 13:00 西北西 3 3200m 2 100 1005.8 弱い雨 弱い雪 もや
26 12:00 西北西 3 3200m 1 100 1005.2 弱い雪 弱い雨 もや
26 11:30 西北西 4 3200m 1 100 1005.1 弱い雨 弱い雪 もや
26 11:00 西北西 4 1600m 1 100 1004.8 雪 弱い雨 もや
26 10:55 西北西 4 1600m 1 100 1004.8 雪 弱い雨 もや
26 10:00 西北西 3 1200m 1 100 1004.6 弱い雨 もや
26 09:56 西北西 3 1200m 1 100 1004.6 弱い雨 もや
26 09:00 西北西 4 800m 1 100 1004.2 弱い雨 霧
26 08:39 西北西 3 800m 1 100 1004 弱い雨 霧
26 08:11 西北西 3 1600m 1 100 1003.8 弱い雨 もや
26 07:11 西北西 4 10km以上 1 100 1003.7 弱い雨 弱い雪 もや
26 07:00 西北西 3 10km以上 1 100 1003.7 弱い雨 弱い雪 もや
26 06:00 北西 4 10km以上 1 100 1003.5 弱い雨 弱い雪
26 05:00 西北西 4 10km以上 0 100 1003.2 弱い雨 弱い雪
26 04:00 西北西 3 10km以上 1 93 1002.9 弱い雨 弱い雪
26 03:00 西北西 3 10km以上 1 100 1002.6 弱い雨 弱い雪
CYEV 280800Z 36009KT 6SM BR BKN004 OVC029 02/01 A2951 RMK SC6SC2 SLP001
CYEV 280700Z 02009KT 5SM BR OVC004 02/02 A2952 RMK ST8 SLP003
CYEV 280637Z 02009KT 4SM BR OVC004 02/02 A2953 RMK FG1ST7 SLP005
CYEV 280607Z 03008KT 2 1/2SM BR OVC003 02/02 A2954 RMK FG2ST6 VIS W 4 SLP008
CYEV 280525Z 01007KT 1SM R06/P6000FT/D BR OVC003 02/01 A2954 RMK FG3ST5 SLP011
CYEV 280515Z 01007KT 1 1/2SM BR OVC004 02/01 A2954 RMK FG3ST5 SLP011
CYEV 280500Z 01007KT 3SM BR OVC006 02/01 A2955 RMK ST8 SLP013
CYEV 280400Z 01003KT 350V050 15SM OVC008 02/01 A2956 RMK SC8 SLP018
CYEV 280300Z 36006KT 15SM OVC007 02/00 A2957 RMK SC8 SLP019
CYEV 280230Z 04004KT 15SM OVC009 02/00 A2959 RMK SC8 CIG RAG SLP026
CYEV 280200Z 04004KT 010V080 15SM OVC010 02/00 A2959 RMK SC8 CIG RAG SLP028
CYEV 280150Z 06006KT 020V090 15SM OVC010 02/00 A2960 RMK SC8 SLP031
CYEV 280100Z 05005KT 010V080 15SM OVC009 02/00 A2963 RMK SC8 SLP040
CYEV 280000Z 09005KT 15SM OVC009 02/00 A2966 RMK SC8 SLP051
CYEV 272300Z VRB03KT 15SM BKN009 OVC018 02/M00 A2969 RMK SC6SC2 SLP062
CYEV 272200Z VRB02KT 15SM BKN008 BKN017 02/01 A2972 RMK ST5SC2 PRESFR SLP070
CYEV 272100Z VRB02KT 15SM BKN007 BKN016 02/00 A2975 RMK ST5SC2 SLP080
CYEV 272018Z 00000KT 15SM BKN007 OVC023 02/01 A2976 RMK ST5SC3 SLP086
CYEV 272000Z 00000KT 15SM BKN004 OVC021 01/00 A2978 RMK ST5SC3 SLP090
CYEV 271900Z 23004KT 180V250 10SM BKN004 OVC021 01/00 A2980 RMK ST6SC2 SLP097
CYEV 271800Z 22005KT 8SM BKN004 OVC023 01/00 A2981 RMK ST5SC3 SLP100
CYEV 271700Z VRB02KT 10SM VCFG BKN004 OVC023 01/01 A2981 RMK ST6SC2 VIS N 1 SLP103
CYEV 271600Z 30002KT 10SM VCFG BKN004 OVC026 00/00 A2982 RMK ST7SC1 VIS N 2 SLP105
CYEV 271500Z 26003KT 230V300 10SM VCFG OVC004 00/00 A2983 RMK ST8 VIS N 2 SLP108
CYEV 271400Z 26005KT 10SM OVC002 00/00 A2984 RMK ST8 SLP111
CYEV 271338Z 26003KT 230V290 8SM VCFG OVC002 00/00 A2984 RMK ST8 VIS N-NE 1 SLP111
CYEV 271325Z 27004KT 220V290 1 1/2SM BR OVC003 00/00 A2984 RMK FG3ST5 SLP111
CYEV 271300Z 26004KT 4SM BR OVC003 00/00 A2984 RMK FG1ST7 VIS SE SW-W 10 SLP111
CYEV 271200Z 27005KT 10SM OVC004 00/00 A2984 RMK ST8 SLP111
CYEV 271120Z 26005KT 15SM OVC004 00/00 A2984 RMK ST8 SLP112
CYEV 271100Z 27004KT 10SM -SN OVC004 00/00 A2984 RMK ST8 CIG RAG SLP112
CYEV 271000Z 28005KT 10SM -SN OVC004 00/00 A2984 RMK ST8 SLP111
CYEV 270916Z 28005KT 250V310 10SM -SN OVC004 00/00 A2984 RMK ST8 SLP111
CYEV 270900Z 28004KT 10SM -DZ OVC004 00/00 A2984 RMK ST8 SLP110
CYEV 270800Z 28006KT 4SM -DZ BR OVC003 00/00 A2982 RMK FG1ST7 SLP106
CYEV 270736Z 28005KT 4SM -DZ BR OVC003 00/00 A2982 RMK FG1ST7 SLP105
CYEV 270700Z 29006KT 4SM -SN BR OVC003 00/00 A2981 RMK FG1ST7 CIG RAG SLP103
CYEV 270600Z 28005KT 4SM -SN BR OVC003 00/00 A2981 RMK FG1ST7 SLP101
CYEV 270500Z 27005KT 240V300 6SM -SN OVC004 00/00 A2980 RMK ST8 CIG RAG SLP098
CYEV 270445Z 28005KT 6SM -SN OVC004 01/00 A2980 RMK ST8 SLP097
CYEV 270400Z 29008KT 6SM -SN OVC006 01/01 A2979 RMK ST8 VIS N-NE 4 SLP096
CYEV 270300Z 29006KT 5SM -SN OVC006 01/00 A2978 RMK ST8 CIG RAG SLP093
CYEV 270200Z 28005KT 4SM -SN OVC006 01/01 A2978 RMK ST8 SLP090
CYEV 270147Z 29006KT 5SM -SN BKN006 OVC022 01/01 A2977 RMK ST7SC1 SLP089
CYEV 270100Z 29008KT 5SM -SN OVC004 01/01 A2976 RMK ST8 SLP086
CYEV 270032Z 29008KT 6SM -SN BKN004 OVC021 01/01 A2976 RMK ST6SC2 SLP084
CYEV 270000Z 29009G15KT 8SM -RASN SCT003 OVC008 01/01 A2975 RMK SF4ST4 SLP082
CYEV 262300Z 30008KT 8SM -RASN SCT003 OVC008 02/01 A2974 RMK SF4ST4 VIS SW-W 3 SLP079
CYEV 262200Z 30011KT 8SM -RASN SCT003 OVC008 02/02 A2973 RMK SF4ST4 SLP075
CYEV 262106Z 29009G15KT 6SM -RASN BKN003 OVC008 02/02 A2972 RMK FG2SF3ST3 SLP071
CYEV 262038Z 30009G16KT 8SM -RA SCT003 OVC008 02/02 A2971 RMK FG2SF2ST4 VIS N-NE 4 SLP068
CYEV 262025Z 30008KT 5SM -RA BR BKN004 OVC013 02/02 A2971 RMK FG4SF2ST2 VIS SW-W 10 SLP067
CYEV 262000Z 30009KT 2SM -RASN BR OVC004 02/02 A2970 RMK FG6ST2 VIS SW-W 6 SLP064
CYEV 261950Z 29008KT 1 1/2SM -RASN BR VV003 01/01 A2970 RMK FG8 SLP063
CYEV 261947Z 29006KT 1 1/2SM -RA BR VV003 02/02 A2970 RMK FG8 SLP063
CYEV 261900Z 30006KT 2SM -RASN BR VV003 02/02 A2968 RMK FG8 SLP058
CYEV 261800Z 30005KT 2SM -SNRA BR VV003 01/01 A2966 RMK FG8 SLP052
CYEV 261730Z 30007KT 2SM -RASN BR VV003 01/01 A2966 RMK FG8 SLP051
CYEV 261700Z 30007KT 1SM R06/P6000FT/N -RASN BR VV003 01/01 A2965 RMK FG8 VIS SE 2 SLP048
CYEV 261655Z 30008KT 1SM R06/P6000FT/U -RASN BR VV003 01/01 A2965 RMK FG8 SLP048
CYEV 261600Z 30006KT 3/4SM R06/P6000FT/D -RA BR VV002 01/01 A2965 RMK FG8 VIS SE 2 SLP046
CYEV 261556Z 30005KT 3/4SM R06/P6000FT/D -RA BR VV002 01/01 A2965 RMK FG8 SLP046
CYEV 261500Z 30007KT 1/2SM R06/P6000FT/N -RA FG VV002 01/01 A2963 RMK FG8 SLP042
CYEV 261439Z CCA 30006KT 1/2SM R06/6000FT/D -RA FG VV002 01/01 A2963 RMK FG8 SLP040
CYEV 261411Z 30006KT 1SM R06/P6000FT/D -RA BR VV003 01/01 A2962 RMK FG8 VIS W 1/2 VIS SE 2 SLP038
CYEV 261311Z 30007KT 6SM -RASN BR OVC004 01/01 A2962 RMK ST8 VIS N-E 3 SLP037
CYEV 261300Z 30006KT 6SM -RASN BR OVC005 01/01 A2962 RMK ST8 CIG RAG SLP037
CYEV 261200Z 31007KT 10SM -RASN OVC005 01/01 A2962 RMK ST8 SLP035
CYEV 261100Z 30007KT 10SM -RASN OVC005 00/00 A2961 RMK ST8 SLP032
CYEV 261000Z 29005KT 10SM -RASN OVC006 01/00 A2960 RMK ST8 SLP029
CYEV 260900Z 30005KT 10SM -RASN OVC005 01/01 A2959 RMK ST8 SLP026